Terminal Aerodrome Forecast
Issued by NWS Mt. Holly, NJ

Home | Current Version | Previous Version | Text Only | Print | Product List | Glossary On
Versions: 1 2 3 4 5 6 7 8 9 10 11 12 13 14 15
364
FTUS41 KPHI 231146
TAFACY
TAF
KACY 231146Z 2312/2412 VRB03KT 3SM BR SCT002 BKN035
      TEMPO 2312/2313 1SM BR BKN002 OVC035
     FM231400 21008KT P6SM BKN025
     FM231900 18006KT P6SM SCT040
     FM240700 VRB03KT 3SM BR BKN010=

USA.gov is the U.S. government's official web portal to all federal, state and local government web resources and services.